createdAt,value
2018-12-01T00:00:48.439Z,21.53
2018-12-01T00:03:16.619Z,25.57
2018-12-01T00:05:44.785Z,21.47
2018-12-01T00:08:12.967Z,22.17
2018-12-01T00:10:41.698Z,23.53
2018-12-01T00:13:09.939Z,21.10
2018-12-01T00:15:38.109Z,19.20
2018-12-01T00:18:06.998Z,19.50
2018-12-01T00:20:37.412Z,19.50
2018-12-01T00:23:06.371Z,19.67
2018-12-01T00:25:34.575Z,20.80
2018-12-01T00:28:02.788Z,17.80
2018-12-01T00:30:30.972Z,20.37
2018-12-01T00:32:59.145Z,19.00
2018-12-01T00:35:27.302Z,18.37
2018-12-01T00:37:55.499Z,19.37
2018-12-01T00:40:23.671Z,19.47
2018-12-01T00:42:51.867Z,18.17
2018-12-01T00:45:22.001Z,17.53
2018-12-01T00:47:52.237Z,19.73
2018-12-01T00:50:21.533Z,17.80
2018-12-01T00:52:50.427Z,16.53
2018-12-01T00:55:19.309Z,20.97
2018-12-01T00:57:47.487Z,19.30
2018-12-01T01:00:21.296Z,19.20
2018-12-01T01:02:51.674Z,17.80
2018-12-01T01:05:20.603Z,19.37
2018-12-01T01:07:48.816Z,19.13
2018-12-01T01:10:16.999Z,24.73
2018-12-01T01:12:45.181Z,20.60
2018-12-01T01:15:13.352Z,25.37
2018-12-01T01:17:41.541Z,22.53
2018-12-01T01:20:12.003Z,26.47
2018-12-01T01:22:40.793Z,20.90
2018-12-01T01:25:09.596Z,29.60
2018-12-01T01:27:37.788Z,25.93
2018-12-01T01:30:09.331Z,19.07
2018-12-01T01:32:37.513Z,26.47
2018-12-01T01:35:05.748Z,22.90
2018-12-01T01:37:33.925Z,23.03
2018-12-01T01:40:02.111Z,21.53
2018-12-01T01:42:30.338Z,20.17
2018-12-01T01:44:58.515Z,17.70
2018-12-01T01:47:26.696Z,15.27
2018-12-01T01:49:54.874Z,17.30
2018-12-01T01:52:23.652Z,18.30
2018-12-01T01:54:53.333Z,16.67
2018-12-01T01:57:22.333Z,19.53
2018-12-01T01:59:51.218Z,16.70
2018-12-01T02:02:21.259Z,15.40
2018-12-01T02:04:50.553Z,14.83
2018-12-01T02:07:19.080Z,17.37
2018-12-01T02:09:47.260Z,19.40
2018-12-01T02:12:15.432Z,17.57
2018-12-01T02:14:43.639Z,14.57
2018-12-01T02:17:11.814Z,16.43
2018-12-01T02:19:39.996Z,19.10
2018-12-01T02:22:08.172Z,14.07
2018-12-01T02:24:36.344Z,15.40
2018-12-01T02:27:04.516Z,14.87
2018-12-01T02:29:32.687Z,12.90
2018-12-01T02:32:01.508Z,14.40
2018-12-01T02:34:29.072Z,14.90
2018-12-01T02:36:57.246Z,14.90
2018-12-01T02:39:25.431Z,15.57
2018-12-01T02:41:53.591Z,13.27
2018-12-01T02:44:33.000Z,16.37
2018-12-01T02:47:07.905Z,15.93
2018-12-01T02:49:36.176Z,13.27
2018-12-01T02:52:05.309Z,13.37
2018-12-01T02:54:33.563Z,17.73
2018-12-01T02:57:01.738Z,14.70
2018-12-01T02:59:29.963Z,13.00
2018-12-01T03:01:58.199Z,16.33
2018-12-01T03:04:26.378Z,18.03
2018-12-01T03:06:54.561Z,18.20
2018-12-01T03:09:22.731Z,13.60
2018-12-01T03:11:50.932Z,15.80
2018-12-01T03:14:19.099Z,16.13
2018-12-01T03:16:47.279Z,14.90
2018-12-01T03:19:15.462Z,15.10
2018-12-01T03:21:43.629Z,14.70
2018-12-01T03:24:11.798Z,16.10
2018-12-01T03:26:39.960Z,13.57
2018-12-01T03:29:08.136Z,16.43
2018-12-01T03:31:36.328Z,16.07
2018-12-01T03:34:04.511Z,15.13
2018-12-01T03:36:32.704Z,17.47
2018-12-01T03:39:00.878Z,18.80
2018-12-01T03:41:29.063Z,14.20
2018-12-01T03:43:57.232Z,16.37
2018-12-01T03:46:25.420Z,15.50
2018-12-01T03:48:53.591Z,16.80
2018-12-01T03:51:21.764Z,13.70
2018-12-01T03:53:49.951Z,16.40
2018-12-01T03:56:18.136Z,18.37
2018-12-01T03:58:46.322Z,13.07
2018-12-01T04:01:14.500Z,13.83
2018-12-01T04:03:42.690Z,19.70
2018-12-01T04:06:10.869Z,17.07
2018-12-01T04:08:39.048Z,16.70
2018-12-01T04:11:07.239Z,16.97
2018-12-01T04:13:35.444Z,17.90
2018-12-01T04:16:03.638Z,17.90
2018-12-01T04:18:31.842Z,16.70
2018-12-01T04:21:00.026Z,15.10
2018-12-01T04:23:28.199Z,16.83
2018-12-01T04:25:56.375Z,13.93
2018-12-01T04:28:24.547Z,15.30
2018-12-01T04:30:52.826Z,15.70
2018-12-01T04:33:21.035Z,13.63
2018-12-01T04:35:49.252Z,12.50
2018-12-01T04:38:17.423Z,16.93
2018-12-01T04:40:45.600Z,14.70
2018-12-01T04:43:13.795Z,15.53
2018-12-01T04:45:41.967Z,15.13
2018-12-01T04:48:10.169Z,15.30
2018-12-01T04:50:38.339Z,16.07
2018-12-01T04:53:07.016Z,16.13
2018-12-01T04:55:35.324Z,14.57
2018-12-01T04:58:03.518Z,14.50
2018-12-01T05:00:31.686Z,15.13
2018-12-01T05:02:59.930Z,14.27
2018-12-01T05:05:28.108Z,17.17
2018-12-01T05:07:56.291Z,13.93
2018-12-01T05:10:24.463Z,23.90
2018-12-01T05:12:52.650Z,26.27
2018-12-01T05:15:20.839Z,23.07
2018-12-01T05:17:49.032Z,30.80
2018-12-01T05:20:19.274Z,24.53
2018-12-01T05:22:47.719Z,18.13
2018-12-01T05:25:15.904Z,18.27
2018-12-01T05:27:44.083Z,21.30
2018-12-01T05:30:12.273Z,17.00
2018-12-01T05:32:40.450Z,18.67
2018-12-01T05:35:19.484Z,16.70
2018-12-01T05:37:47.683Z,16.13
2018-12-01T05:40:15.858Z,19.33
2018-12-01T05:42:44.040Z,17.97
2018-12-01T05:45:20.191Z,16.33
2018-12-01T05:47:48.443Z,20.87
2018-12-01T05:50:22.879Z,21.93
2018-12-01T05:52:52.055Z,22.63
2018-12-01T05:55:20.231Z,18.23
2018-12-01T05:57:48.420Z,20.63
2018-12-01T06:00:17.108Z,18.80
2018-12-01T06:02:45.300Z,19.60
2018-12-01T06:05:13.473Z,21.50
2018-12-01T06:07:42.308Z,20.27
2018-12-01T06:10:14.383Z,23.13
2018-12-01T06:12:42.600Z,21.17
2018-12-01T06:15:11.751Z,20.00
2018-12-01T06:17:39.944Z,18.50
2018-12-01T06:20:10.205Z,21.30
2018-12-01T06:22:38.415Z,19.23
2018-12-01T06:25:08.549Z,17.57
2018-12-01T06:27:36.754Z,19.63
2018-12-01T06:30:09.711Z,20.83
2018-12-01T06:32:37.891Z,16.30
2018-12-01T06:35:06.148Z,18.30
2018-12-01T06:37:34.340Z,18.73
2018-12-01T06:40:02.540Z,18.37
2018-12-01T06:42:30.727Z,17.97
2018-12-01T06:44:58.904Z,18.57
2018-12-01T06:47:27.084Z,19.13
2018-12-01T06:49:55.251Z,22.67
2018-12-01T06:52:23.439Z,19.97
2018-12-01T06:54:51.615Z,21.60
2018-12-01T06:57:19.811Z,22.30
2018-12-01T06:59:47.978Z,25.13
2018-12-01T07:02:16.149Z,27.30
2018-12-01T07:04:44.335Z,33.33
2018-12-01T07:07:12.537Z,26.20
2018-12-01T07:09:40.724Z,27.60
2018-12-01T07:12:08.921Z,25.93
2018-12-01T07:14:37.077Z,26.37
2018-12-01T07:17:05.652Z,31.93
2018-12-01T07:19:33.845Z,25.63
2018-12-01T07:22:02.031Z,32.23
2018-12-01T07:24:30.227Z,22.37
2018-12-01T07:26:58.422Z,20.60
2018-12-01T07:29:26.627Z,23.50
2018-12-01T07:31:54.823Z,20.17
2018-12-01T07:34:23.008Z,24.60
2018-12-01T07:36:51.184Z,25.03
2018-12-01T07:39:19.363Z,28.93
2018-12-01T07:41:47.544Z,18.97
2018-12-01T07:44:15.740Z,19.83
2018-12-01T07:46:43.915Z,18.53
2018-12-01T07:49:12.120Z,18.27
2018-12-01T07:51:40.290Z,17.63
2018-12-01T07:54:08.463Z,17.90
2018-12-01T07:56:36.626Z,16.90
2018-12-01T07:59:05.091Z,17.10
2018-12-01T08:01:33.259Z,17.30
2018-12-01T08:04:01.464Z,14.77
2018-12-01T08:06:29.636Z,17.83
2018-12-01T08:08:57.811Z,16.17
2018-12-01T08:11:25.996Z,15.93
2018-12-01T08:13:54.184Z,16.27
2018-12-01T08:16:22.351Z,17.63
2018-12-01T08:18:50.553Z,13.77
2018-12-01T08:21:18.724Z,12.57
2018-12-01T08:23:46.909Z,12.87
2018-12-01T08:26:15.084Z,12.47
2018-12-01T08:28:43.253Z,8.67
2018-12-01T08:31:11.419Z,9.67
2018-12-01T08:33:39.602Z,14.90
2018-12-01T08:36:07.768Z,11.53
2018-12-01T08:38:35.936Z,10.17
2018-12-01T08:41:04.152Z,15.70
2018-12-01T08:43:32.320Z,10.77
2018-12-01T08:46:00.498Z,9.70
2018-12-01T08:48:28.671Z,11.30
2018-12-01T08:50:58.139Z,13.33
2018-12-01T08:53:26.319Z,11.50
2018-12-01T08:55:54.480Z,11.27
2018-12-01T08:58:22.656Z,11.17
2018-12-01T09:00:50.828Z,10.90
2018-12-01T09:03:22.999Z,10.30
2018-12-01T09:05:51.863Z,9.17
2018-12-01T09:08:20.104Z,12.77
2018-12-01T09:10:48.279Z,6.70
2018-12-01T09:13:16.607Z,8.93
2018-12-01T09:15:44.783Z,12.40
2018-12-01T09:18:12.972Z,7.03
2018-12-01T09:20:41.177Z,6.67
2018-12-01T09:23:09.351Z,8.60
2018-12-01T09:25:37.554Z,9.83
2018-12-01T09:28:07.022Z,8.93
2018-12-01T09:30:36.299Z,8.23
2018-12-01T09:33:04.604Z,8.83
2018-12-01T09:35:32.824Z,6.70
2018-12-01T09:38:01.048Z,7.17
2018-12-01T09:40:29.349Z,7.90
2018-12-01T09:42:57.567Z,9.67
2018-12-01T09:45:25.956Z,9.27
2018-12-01T09:47:55.331Z,9.93
2018-12-01T09:50:23.495Z,8.87
2018-12-01T09:52:54.038Z,5.57
2018-12-01T09:55:23.451Z,5.90
2018-12-01T09:57:51.624Z,6.57
2018-12-01T10:00:23.588Z,4.50
2018-12-01T10:02:51.892Z,3.20
2018-12-01T10:05:20.620Z,5.27
2018-12-01T10:07:48.896Z,6.43
2018-12-01T10:10:18.214Z,5.60
2018-12-01T10:12:47.493Z,6.50
2018-12-01T10:15:18.420Z,4.83
2018-12-01T10:17:46.625Z,6.47
2018-12-01T10:20:21.967Z,4.57
2018-12-01T10:22:50.962Z,2.60
2018-12-01T10:25:19.176Z,5.73
2018-12-01T10:27:47.580Z,3.60
2018-12-01T10:30:21.983Z,5.70
2018-12-01T10:32:56.315Z,7.60
2018-12-01T10:35:25.447Z,3.40
2018-12-01T10:37:55.965Z,4.63
2018-12-01T10:40:24.158Z,4.90
2018-12-01T10:42:52.654Z,6.47
2018-12-01T10:45:21.270Z,6.00
2018-12-01T10:47:49.738Z,5.23
2018-12-01T10:50:19.101Z,5.43
2018-12-01T10:52:48.188Z,2.73
2018-12-01T10:55:29.139Z,5.90
2018-12-01T10:57:59.715Z,4.73
2018-12-01T11:03:14.002Z,2.97
2018-12-01T11:05:42.859Z,5.20
2018-12-01T11:08:14.639Z,4.93
2018-12-01T11:10:42.960Z,3.77
2018-12-01T11:13:11.387Z,3.70
2018-12-01T11:15:39.611Z,4.07
2018-12-01T11:18:07.797Z,4.73
2018-12-01T11:20:36.009Z,5.17
2018-12-01T11:23:04.227Z,5.53
2018-12-01T11:25:32.405Z,4.40
2018-12-01T11:28:00.576Z,4.13
2018-12-01T11:30:28.772Z,3.80
2018-12-01T11:32:56.958Z,3.90
2018-12-01T11:35:25.131Z,3.90
2018-12-01T11:37:53.316Z,2.80
2018-12-01T11:40:21.496Z,2.90
2018-12-01T11:42:50.128Z,2.90
2018-12-01T11:45:18.576Z,4.03
2018-12-01T11:47:46.755Z,3.50
2018-12-01T11:50:17.662Z,3.50
2018-12-01T11:52:46.935Z,4.70
2018-12-01T11:55:19.516Z,3.10
2018-12-01T11:57:47.679Z,3.10
2018-12-01T12:00:16.686Z,2.43
2018-12-01T12:02:44.923Z,3.80
2018-12-01T12:05:14.979Z,3.73
2018-12-01T12:07:56.719Z,5.77
2018-12-01T12:10:25.025Z,5.13
2018-12-01T12:12:55.642Z,5.10
2018-12-01T12:15:24.579Z,6.43
2018-12-01T12:18:03.011Z,5.63
2018-12-01T12:20:31.379Z,4.37
2018-12-01T12:22:59.604Z,4.13
2018-12-01T12:45:40.435Z,4.23
2018-12-01T12:48:09.183Z,7.03
2018-12-01T13:39:01.141Z,18.13
2018-12-01T13:41:29.389Z,3.33
2018-12-01T13:43:57.633Z,7.93
2018-12-01T13:46:25.824Z,5.63
2018-12-01T13:48:54.010Z,6.60
2018-12-01T13:51:22.225Z,3.80
2018-12-01T13:53:50.399Z,3.90
2018-12-01T13:56:20.881Z,3.50
2018-12-01T13:58:46.779Z,7.80
2018-12-01T14:01:14.976Z,4.47
2018-12-01T14:03:43.157Z,8.33
2018-12-01T14:06:11.352Z,6.40
2018-12-01T14:08:39.543Z,5.83
2018-12-01T14:11:07.714Z,5.00
2018-12-01T14:13:35.936Z,4.90
2018-12-01T14:16:04.145Z,6.30
2018-12-01T14:18:32.355Z,3.47
2018-12-01T14:21:00.547Z,4.90
2018-12-01T14:23:28.759Z,8.60
2018-12-01T14:25:56.938Z,5.90
2018-12-01T14:28:25.111Z,4.80
2018-12-01T14:30:53.306Z,5.77
2018-12-01T14:33:21.820Z,8.33
2018-12-01T14:35:49.987Z,8.13
2018-12-01T14:38:18.615Z,7.27
2018-12-01T14:40:47.835Z,4.90
2018-12-01T14:43:16.063Z,7.13
2018-12-01T14:45:45.432Z,6.10
2018-12-01T14:48:13.624Z,7.10
2018-12-01T14:50:41.798Z,8.10
2018-12-01T14:53:11.496Z,14.57
2018-12-01T14:55:39.676Z,22.30
2018-12-01T14:58:07.967Z,8.50
2018-12-01T15:00:36.743Z,11.30
2018-12-01T15:03:05.417Z,8.53
2018-12-01T15:05:33.628Z,6.20
2018-12-01T15:08:01.811Z,12.93
2018-12-01T15:10:29.984Z,9.83
2018-12-01T15:12:58.169Z,8.30
2018-12-01T15:15:27.309Z,8.67
2018-12-01T15:17:55.487Z,5.20
2018-12-01T15:20:24.666Z,8.47
2018-12-01T15:22:54.832Z,5.83
2018-12-01T15:25:25.001Z,8.50
2018-12-01T15:27:53.220Z,5.87
2018-12-01T15:30:23.247Z,5.23
2018-12-01T15:32:59.488Z,6.70
2018-12-01T15:35:27.698Z,6.23
2018-12-01T15:37:56.191Z,7.50
2018-12-01T15:40:24.370Z,7.93
2018-12-01T15:42:52.539Z,7.27
2018-12-01T15:45:21.693Z,8.87
2018-12-01T15:47:49.883Z,6.63
2018-12-01T15:50:19.016Z,8.93
2018-12-01T15:52:50.043Z,9.63
2018-12-01T15:55:18.275Z,10.83
2018-12-01T15:57:46.464Z,6.67
2018-12-01T16:00:16.634Z,10.13
2018-12-01T16:02:44.871Z,41.77
2018-12-01T16:05:13.908Z,11.23
2018-12-01T16:07:42.405Z,19.47
2018-12-01T16:10:14.780Z,8.10
2018-12-01T16:12:43.815Z,10.67
2018-12-01T16:17:54.895Z,8.60
2018-12-01T16:20:23.213Z,9.37
2018-12-01T16:22:51.395Z,11.90
2018-12-01T16:25:21.024Z,10.10
2018-12-01T16:27:49.263Z,9.80
2018-12-01T16:30:25.117Z,12.17
2018-12-01T16:32:54.742Z,7.73
2018-12-01T16:35:23.000Z,8.13
2018-12-01T16:37:51.168Z,8.70
2018-12-01T16:40:23.864Z,13.17
2018-12-01T16:42:52.433Z,10.70
2018-12-01T16:45:20.847Z,8.93
2018-12-01T16:47:49.032Z,14.70
2018-12-01T16:50:17.209Z,13.60
2018-12-01T16:52:46.292Z,13.33
2018-12-01T16:55:15.562Z,12.63
2018-12-01T16:57:44.232Z,8.23
2018-12-01T17:00:16.569Z,9.90
2018-12-01T17:02:46.112Z,8.30
2018-12-01T17:05:15.731Z,9.10
2018-12-01T17:07:44.050Z,9.03
2018-12-01T17:10:13.511Z,14.20
2018-12-01T17:12:42.302Z,13.47
2018-12-01T17:15:12.831Z,11.50
2018-12-01T17:17:41.141Z,11.37
2018-12-01T17:20:10.492Z,8.07
2018-12-01T17:22:38.763Z,10.30
2018-12-01T17:25:10.324Z,10.83
2018-12-01T17:27:38.521Z,10.07
2018-12-01T17:30:11.376Z,14.77
2018-12-01T17:32:39.559Z,11.03
2018-12-01T17:35:10.292Z,10.27
2018-12-01T17:37:38.545Z,12.30
2018-12-01T17:40:11.779Z,19.23
2018-12-01T17:42:40.997Z,14.40
2018-12-01T17:45:10.460Z,16.17
2018-12-01T17:47:38.836Z,13.57
2018-12-01T17:50:11.413Z,12.50
2018-12-01T17:52:40.249Z,14.40
2018-12-01T17:55:10.425Z,12.90
2018-12-01T18:00:17.412Z,16.10
2018-12-01T18:02:45.591Z,16.40
2018-12-01T18:05:16.515Z,13.80
2018-12-01T18:07:44.907Z,12.63
2018-12-01T18:10:13.940Z,11.83
2018-12-01T18:12:42.805Z,16.33
2018-12-01T18:15:12.408Z,15.00
2018-12-01T18:17:40.576Z,15.43
2018-12-01T18:20:16.695Z,16.90
2018-12-01T18:22:50.317Z,12.90
2018-12-01T18:25:18.509Z,10.40
2018-12-01T18:27:47.699Z,13.60
2018-12-01T18:30:24.438Z,15.47
2018-12-01T18:32:53.267Z,13.57
2018-12-01T18:35:21.515Z,23.67
2018-12-01T18:37:49.756Z,17.50
2018-12-01T18:40:19.333Z,20.37
2018-12-01T18:42:47.533Z,13.63
2018-12-01T18:45:17.002Z,17.70
2018-12-01T18:47:45.291Z,13.10
2018-12-01T18:50:14.646Z,10.77
2018-12-01T18:52:44.571Z,14.30
2018-12-01T18:55:13.880Z,15.17
2018-12-01T18:57:42.163Z,15.10
2018-12-01T19:00:15.802Z,14.53
2018-12-01T19:02:44.436Z,12.73
2018-12-01T19:05:12.671Z,16.73
2018-12-01T19:07:40.862Z,19.03
2018-12-01T19:10:17.884Z,13.87
2018-12-01T19:12:46.111Z,19.03
2018-12-01T19:15:15.363Z,16.50
2018-12-01T19:17:44.436Z,20.53
2018-12-01T19:20:14.460Z,22.67
2018-12-01T19:22:42.691Z,22.70
2018-12-01T19:25:13.063Z,24.17
2018-12-01T19:27:41.305Z,24.93
2018-12-01T19:30:10.940Z,20.20
2018-12-01T19:32:39.243Z,32.00
2018-12-01T19:35:09.236Z,28.63
2018-12-01T19:37:37.455Z,31.13
2018-12-01T19:40:14.691Z,22.20
2018-12-01T19:42:42.880Z,24.70
2018-12-01T19:45:11.089Z,20.37
2018-12-01T19:47:39.310Z,20.57
2018-12-01T19:50:12.027Z,25.00
2018-12-01T19:52:40.220Z,27.03
2018-12-01T19:55:10.287Z,27.03
2018-12-01T19:57:38.780Z,23.10
2018-12-01T20:00:16.485Z,22.33
2018-12-01T20:02:44.714Z,21.30
2018-12-01T20:05:15.198Z,18.87
2018-12-01T20:07:43.440Z,18.77
2018-12-01T20:10:14.813Z,20.97
2018-12-01T20:12:44.598Z,18.20
2018-12-01T20:15:24.135Z,20.80
2018-12-01T20:17:52.335Z,15.13
2018-12-01T20:20:20.584Z,14.07
2018-12-01T20:22:48.771Z,12.20
2018-12-01T20:25:17.548Z,13.20
2018-12-01T20:27:45.195Z,19.87
2018-12-01T20:30:19.679Z,14.17
2018-12-01T20:32:47.893Z,17.37
2018-12-01T20:35:23.551Z,11.23
2018-12-01T20:37:55.095Z,10.10
2018-12-01T20:40:23.293Z,9.27
2018-12-01T20:42:51.504Z,11.30
2018-12-01T20:45:19.693Z,9.40
2018-12-01T20:47:47.872Z,17.70
2018-12-01T20:50:16.782Z,15.00
2018-12-01T20:52:46.385Z,16.40
2018-12-01T20:55:16.206Z,15.17
2018-12-01T20:57:47.139Z,12.67
2018-12-01T21:00:15.339Z,20.20
2018-12-01T21:02:43.872Z,22.63
2018-12-01T21:05:14.747Z,16.20
2018-12-01T21:07:42.946Z,18.07
2018-12-01T21:10:14.327Z,17.87
2018-12-01T21:12:42.481Z,18.27
2018-12-01T21:15:11.931Z,16.27
2018-12-01T21:17:41.543Z,14.73
2018-12-01T21:20:14.011Z,16.63
2018-12-01T21:22:44.430Z,15.83
2018-12-01T21:25:13.823Z,17.67
2018-12-01T21:27:42.020Z,14.63
2018-12-01T21:30:14.567Z,21.20
2018-12-01T21:32:42.808Z,19.30
2018-12-01T21:35:12.347Z,23.00
2018-12-01T21:37:40.595Z,24.33
2018-12-01T21:40:11.588Z,29.80
2018-12-01T21:42:39.808Z,21.27
2018-12-01T21:45:09.860Z,16.30
2018-12-01T21:47:38.065Z,15.23
2018-12-01T21:50:09.887Z,81.07
2018-12-01T21:52:38.099Z,36.67
2018-12-01T21:55:08.395Z,30.30
2018-12-01T21:57:36.678Z,30.30
2018-12-01T22:00:12.780Z,16.03
2018-12-01T22:02:40.964Z,10.33
2018-12-01T22:05:11.411Z,14.50
2018-12-01T22:07:39.584Z,13.73
2018-12-01T22:10:11.148Z,17.00
2018-12-01T22:12:39.347Z,17.30
2018-12-01T22:15:10.245Z,12.63
2018-12-01T22:17:38.427Z,14.70
2018-12-01T22:20:09.801Z,15.77
2018-12-01T22:22:37.969Z,15.20
2018-12-01T22:25:07.643Z,9.97
2018-12-01T22:27:35.828Z,14.70
2018-12-01T22:30:09.326Z,11.63
2018-12-01T22:32:37.474Z,10.07
2018-12-01T22:35:08.478Z,9.00
2018-12-01T22:37:36.640Z,10.73
2018-12-01T22:40:10.300Z,9.43
2018-12-01T22:42:38.452Z,8.37
2018-12-01T22:45:06.763Z,9.87
2018-12-01T22:47:35.010Z,16.47
2018-12-01T22:50:04.135Z,13.00
2018-12-01T22:52:32.287Z,12.43
2018-12-01T22:55:00.432Z,10.47
2018-12-01T22:57:28.600Z,20.03
2018-12-01T22:59:56.732Z,11.50
2018-12-01T23:02:24.893Z,13.27
2018-12-01T23:04:53.040Z,14.73
2018-12-01T23:07:21.180Z,12.60
2018-12-01T23:09:49.331Z,10.60
2018-12-01T23:12:17.481Z,9.17
2018-12-01T23:14:45.599Z,14.30
2018-12-01T23:17:13.761Z,10.53
2018-12-01T23:19:41.911Z,10.30
2018-12-01T23:22:10.071Z,12.00
2018-12-01T23:24:38.185Z,11.83
2018-12-01T23:27:06.343Z,8.77
2018-12-01T23:29:34.475Z,11.03
2018-12-01T23:32:02.672Z,13.80
2018-12-01T23:34:30.857Z,13.70
2018-12-01T23:36:59.086Z,12.70
2018-12-01T23:39:27.247Z,15.40
2018-12-01T23:41:55.189Z,15.70
2018-12-01T23:44:30.006Z,14.80
2018-12-01T23:46:58.183Z,12.67
2018-12-01T23:49:26.340Z,14.73
2018-12-01T23:51:54.523Z,12.57
2018-12-01T23:54:22.671Z,13.07
2018-12-01T23:56:50.831Z,10.43
2018-12-01T23:59:18.999Z,10.70
